Time;durP1;ratioP1;P1;durP2;ratioP2;P2;SDS_P1;SDS_P2;PMS_P1;PMS_P2;Temp;Humidity;BMP_temperature;BMP_pressure;BME280_temperature;BME280_humidity;BME280_pressure;Samples;Min_cycle;Max_cycle;Signal;HPM_P1;HPM_P2
2021/06/01 00:01:24;;;;;;;2.17;1.60;;;;;;;;;;5043947;28;20558;-74
2021/06/01 00:03:49;;;;;;;4.00;1.55;;;;;;;;;;5034862;28;20034;-74
2021/06/01 00:06:16;;;;;;;1.85;1.52;;;;;;;;;;5045303;28;20529;-74
2021/06/01 00:08:42;;;;;;;6.82;1.50;;;;;;;;;;5035671;28;20041;-74
2021/06/01 00:11:08;;;;;;;3.03;1.40;;;;;;;;;;5039903;28;20044;-74
2021/06/01 00:13:34;;;;;;;3.45;1.50;;;;;;;;;;5054525;28;20040;-74
2021/06/01 00:16:00;;;;;;;3.47;1.88;;;;;;;;;;5054361;28;20043;-74
2021/06/01 00:18:26;;;;;;;6.32;1.90;;;;;;;;;;5054463;28;20037;-74
2021/06/01 00:20:52;;;;;;;7.07;2.08;;;;;;;;;;5054190;28;20459;-74
2021/06/01 00:23:17;;;;;;;6.28;1.77;;;;;;;;;;5053861;28;20033;-74
2021/06/01 00:25:42;;;;;;;2.80;1.92;;;;;;;;;;5052448;28;20045;-74
2021/06/01 00:28:08;;;;;;;4.43;1.60;;;;;;;;;;5054141;28;20055;-74
2021/06/01 00:30:33;;;;;;;5.47;1.83;;;;;;;;;;5053886;28;20478;-74
2021/06/01 00:32:59;;;;;;;4.85;1.60;;;;;;;;;;5046595;28;20037;-74
2021/06/01 00:35:24;;;;;;;4.38;1.80;;;;;;;;;;5036862;28;20415;-74
2021/06/01 00:37:50;;;;;;;3.75;1.70;;;;;;;;;;5034158;28;20427;-74
2021/06/01 00:40:15;;;;;;;4.35;1.88;;;;;;;;;;5045041;28;20048;-74
2021/06/01 00:42:41;;;;;;;5.03;1.80;;;;;;;;;;5041938;28;20056;-74
2021/06/01 00:45:06;;;;;;;2.17;1.80;;;;;;;;;;5034047;28;20037;-74
2021/06/01 00:47:32;;;;;;;1.85;1.30;;;;;;;;;;5034059;28;20045;-74
2021/06/01 00:49:57;;;;;;;2.58;1.63;;;;;;;;;;5033863;28;20033;-74
2021/06/01 00:52:23;;;;;;;1.73;1.30;;;;;;;;;;5033911;28;20505;-74
2021/06/01 00:54:48;;;;;;;6.65;1.65;;;;;;;;;;5033386;28;20033;-74
2021/06/01 00:57:14;;;;;;;4.70;2.03;;;;;;;;;;5033931;28;20460;-74
2021/06/01 00:59:39;;;;;;;4.57;2.00;;;;;;;;;;5031846;28;20045;-74
2021/06/01 01:02:05;;;;;;;2.95;1.60;;;;;;;;;;5033707;28;20048;-74
2021/06/01 01:04:31;;;;;;;8.23;2.17;;;;;;;;;;5045659;28;20539;-74
2021/06/01 01:07:16;;;;;;;3.00;1.80;;;;;;;;;;5042031;28;20459;-74
2021/06/01 01:09:46;;;;;;;2.83;1.65;;;;;;;;;;5040386;28;20045;-74
2021/06/01 01:12:20;;;;;;;5.03;1.40;;;;;;;;;;5053572;28;20043;-74
2021/06/01 01:14:59;;;;;;;2.70;1.63;;;;;;;;;;5052790;28;20067;-74
2021/06/01 01:17:44;;;;;;;2.67;1.58;;;;;;;;;;5053118;28;20040;-74
2021/06/01 01:20:28;;;;;;;4.10;2.00;;;;;;;;;;5052299;28;20095;-74
2021/06/01 01:22:56;;;;;;;3.30;2.20;;;;;;;;;;5053440;28;20044;-74
2021/06/01 01:25:38;;;;;;;8.48;1.70;;;;;;;;;;5052396;28;20398;-73
2021/06/01 01:28:13;;;;;;;3.85;2.00;;;;;;;;;;5052967;28;20471;-74
2021/06/01 01:30:42;;;;;;;4.22;2.25;;;;;;;;;;5052747;28;20463;-74
2021/06/01 01:33:31;;;;;;;3.10;2.13;;;;;;;;;;5045710;28;20109;-74
2021/06/01 01:36:00;;;;;;;4.38;1.98;;;;;;;;;;5041924;28;20037;-74
2021/06/01 01:38:27;;;;;;;4.43;1.80;;;;;;;;;;5039170;28;20037;-74
2021/06/01 01:41:07;;;;;;;2.95;1.83;;;;;;;;;;5040631;28;20422;-74
2021/06/01 01:43:34;;;;;;;3.50;2.15;;;;;;;;;;5033175;28;20044;-74
2021/06/01 01:46:09;;;;;;;3.40;1.60;;;;;;;;;;5032983;28;20041;-74
2021/06/01 01:51:20;;;;;;;3.95;1.85;;;;;;;;;;5033214;28;20464;-74
2021/06/01 01:53:52;;;;;;;2.40;1.33;;;;;;;;;;5032046;28;20091;-74
2021/06/01 01:56:20;;;;;;;2.60;1.70;;;;;;;;;;5032998;28;20455;-74
2021/06/01 01:58:49;;;;;;;2.05;1.70;;;;;;;;;;5033189;28;20037;-74
2021/06/01 02:01:16;;;;;;;3.38;2.03;;;;;;;;;;5033115;28;20095;-74
2021/06/01 02:03:42;;;;;;;2.75;1.90;;;;;;;;;;5032956;28;20071;-74
2021/06/01 02:06:08;;;;;;;2.95;1.58;;;;;;;;;;5037166;28;20039;-74
2021/06/01 02:08:36;;;;;;;2.53;1.90;;;;;;;;;;5040088;28;20037;-73
2021/06/01 02:11:02;;;;;;;2.92;2.00;;;;;;;;;;5034705;28;20617;-74
2021/06/01 02:13:28;;;;;;;3.33;1.70;;;;;;;;;;5056306;28;20025;-73
2021/06/01 02:15:56;;;;;;;3.65;2.10;;;;;;;;;;5054021;28;20053;-73
2021/06/01 02:18:22;;;;;;;4.00;2.33;;;;;;;;;;5036811;28;20046;-72
2021/06/01 02:20:51;;;;;;;4.35;2.20;;;;;;;;;;5036752;28;20034;-72
2021/06/01 02:26:26;;;;;;;3.28;2.03;;;;;;;;;;5036708;28;20037;-74
2021/06/01 02:28:56;;;;;;;6.57;2.20;;;;;;;;;;5036461;28;20049;-74
2021/06/01 02:31:28;;;;;;;2.78;1.70;;;;;;;;;;5036701;28;20108;-74
2021/06/01 02:33:55;;;;;;;2.13;1.70;;;;;;;;;;5036697;28;20035;-74
2021/06/01 02:36:22;;;;;;;2.42;1.90;;;;;;;;;;5035091;28;20037;-74
2021/06/01 02:38:50;;;;;;;4.55;2.50;;;;;;;;;;5046652;28;20036;-74
2021/06/01 02:41:16;;;;;;;2.78;1.85;;;;;;;;;;5036693;28;20038;-75
2021/06/01 02:43:42;;;;;;;3.67;1.90;;;;;;;;;;5036328;28;20053;-74
2021/06/01 02:46:08;;;;;;;2.28;1.92;;;;;;;;;;5037588;28;20033;-78
2021/06/01 02:48:34;;;;;;;5.93;1.98;;;;;;;;;;5036218;28;20022;-77
2021/06/01 02:51:14;;;;;;;3.58;2.08;;;;;;;;;;5036312;28;20034;-77
2021/06/01 02:53:45;;;;;;;3.17;2.30;;;;;;;;;;5038441;28;20041;-77
2021/06/01 02:56:11;;;;;;;5.10;1.70;;;;;;;;;;5055966;28;20040;-77
2021/06/01 02:58:39;;;;;;;2.00;1.73;;;;;;;;;;5055716;28;20028;-77
2021/06/01 03:01:05;;;;;;;3.38;1.70;;;;;;;;;;5055531;28;20052;-74
2021/06/01 03:03:30;;;;;;;2.83;2.10;;;;;;;;;;5055976;28;20037;-74
2021/06/01 03:05:56;;;;;;;3.95;2.08;;;;;;;;;;5055261;28;20049;-73
2021/06/01 03:08:28;;;;;;;2.75;1.73;;;;;;;;;;5053009;28;20025;-73
2021/06/01 03:10:56;;;;;;;3.35;1.50;;;;;;;;;;5043587;28;20067;-74
2021/06/01 03:13:21;;;;;;;3.35;2.20;;;;;;;;;;5035876;28;20029;-74
2021/06/01 03:15:47;;;;;;;3.60;2.03;;;;;;;;;;5044332;28;20044;-73
2021/06/01 03:18:13;;;;;;;2.53;1.70;;;;;;;;;;5055619;28;20044;-74
2021/06/01 03:20:38;;;;;;;4.45;2.58;;;;;;;;;;5055355;28;20044;-73
2021/06/01 03:23:04;;;;;;;2.67;2.05;;;;;;;;;;5053697;28;20045;-74
2021/06/01 03:25:29;;;;;;;2.80;1.80;;;;;;;;;;5055334;28;20040;-73
2021/06/01 03:27:55;;;;;;;3.55;1.90;;;;;;;;;;5055520;28;20564;-73
2021/06/01 03:30:21;;;;;;;2.67;1.80;;;;;;;;;;5054355;28;20037;-74
2021/06/01 03:32:46;;;;;;;2.55;2.08;;;;;;;;;;5055470;28;20039;-74
2021/06/01 03:35:11;;;;;;;4.88;2.20;;;;;;;;;;5055365;28;20037;-73
2021/06/01 03:37:37;;;;;;;7.20;1.90;;;;;;;;;;5055339;28;20081;-74
2021/06/01 03:40:04;;;;;;;3.17;2.20;;;;;;;;;;5048364;28;20041;-73
2021/06/01 03:42:29;;;;;;;4.47;2.15;;;;;;;;;;5044069;28;20498;-73
2021/06/01 03:44:54;;;;;;;3.58;2.03;;;;;;;;;;5046965;28;20076;-74
2021/06/01 03:47:20;;;;;;;2.85;2.03;;;;;;;;;;5033627;28;20064;-73
2021/06/01 03:49:45;;;;;;;4.95;2.47;;;;;;;;;;5035251;28;20414;-74
2021/06/01 03:52:11;;;;;;;5.97;1.98;;;;;;;;;;5034936;28;20052;-74
2021/06/01 03:54:37;;;;;;;3.20;1.88;;;;;;;;;;5034899;28;20036;-74
2021/06/01 03:57:04;;;;;;;3.15;1.90;;;;;;;;;;5034851;28;20049;-74
2021/06/01 03:59:29;;;;;;;3.42;2.22;;;;;;;;;;5035004;28;20468;-74
2021/06/01 04:01:55;;;;;;;2.78;1.70;;;;;;;;;;5034808;28;20045;-73
2021/06/01 04:04:20;;;;;;;2.85;2.20;;;;;;;;;;5038236;28;20029;-74
2021/06/01 04:06:46;;;;;;;2.85;1.92;;;;;;;;;;5054831;28;20059;-74
2021/06/01 04:09:12;;;;;;;4.43;2.10;;;;;;;;;;5054321;28;20043;-74
2021/06/01 04:11:37;;;;;;;8.02;2.08;;;;;;;;;;5041079;28;20038;-73
2021/06/01 04:14:02;;;;;;;3.13;2.22;;;;;;;;;;5054575;28;20037;-74
2021/06/01 04:16:29;;;;;;;1.90;1.65;;;;;;;;;;5054598;28;20162;-73
2021/06/01 04:18:54;;;;;;;4.03;1.73;;;;;;;;;;5054437;28;20035;-73
2021/06/01 04:21:20;;;;;;;2.33;2.00;;;;;;;;;;5054304;28;20116;-74
2021/06/01 04:23:46;;;;;;;2.70;1.90;;;;;;;;;;5053861;28;20036;-74
2021/06/01 04:26:11;;;;;;;10.40;2.33;;;;;;;;;;5054586;28;20028;-74
2021/06/01 04:28:37;;;;;;;4.28;2.50;;;;;;;;;;5052996;28;20040;-73
2021/06/01 04:31:02;;;;;;;3.35;2.35;;;;;;;;;;5054138;28;20108;-73
2021/06/01 04:33:28;;;;;;;5.80;2.20;;;;;;;;;;5053663;28;20029;-73
2021/06/01 04:35:53;;;;;;;8.38;2.30;;;;;;;;;;5054841;28;20036;-74
2021/06/01 04:38:19;;;;;;;10.27;3.10;;;;;;;;;;5054111;28;20119;-74
2021/06/01 04:40:44;;;;;;;5.90;2.65;;;;;;;;;;5049995;28;20029;-74
2021/06/01 04:43:09;;;;;;;6.50;3.10;;;;;;;;;;5042659;28;20045;-74
2021/06/01 04:45:35;;;;;;;5.57;3.00;;;;;;;;;;5033019;28;20045;-74
2021/06/01 04:48:00;;;;;;;9.80;2.60;;;;;;;;;;5033764;28;20168;-74
2021/06/01 04:50:26;;;;;;;4.07;2.60;;;;;;;;;;5034144;28;20103;-74
2021/06/01 04:52:52;;;;;;;3.83;2.15;;;;;;;;;;5032924;28;20029;-74
2021/06/01 04:55:18;;;;;;;3.72;2.60;;;;;;;;;;5033924;28;20489;-74
2021/06/01 04:57:44;;;;;;;6.72;2.30;;;;;;;;;;5032664;28;20037;-74
2021/06/01 05:00:10;;;;;;;5.75;2.72;;;;;;;;;;5033912;28;20068;-74
2021/06/01 05:02:36;;;;;;;7.95;3.20;;;;;;;;;;5033619;28;20049;-74
2021/06/01 05:05:02;;;;;;;11.77;3.15;;;;;;;;;;5033636;28;20037;-74
2021/06/01 05:07:28;;;;;;;14.75;4.35;;;;;;;;;;5033429;28;20448;-74
2021/06/01 05:10:00;;;;;;;5.50;2.88;;;;;;;;;;5040445;28;20020;-74
2021/06/01 05:12:26;;;;;;;5.38;2.72;;;;;;;;;;5047035;28;20033;-74
2021/06/01 05:14:51;;;;;;;9.90;3.65;;;;;;;;;;5034032;28;20049;-74
2021/06/01 05:17:20;;;;;;;5.35;3.00;;;;;;;;;;5032137;28;20462;-74
2021/06/01 05:19:45;;;;;;;4.53;3.10;;;;;;;;;;5033487;28;20052;-74
2021/06/01 05:22:12;;;;;;;6.43;3.10;;;;;;;;;;5033845;28;20029;-75
2021/06/01 05:24:38;;;;;;;9.18;3.58;;;;;;;;;;5032965;28;20084;-74
2021/06/01 05:27:04;;;;;;;4.47;3.30;;;;;;;;;;5037037;28;20032;-74
2021/06/01 05:29:30;;;;;;;4.28;2.92;;;;;;;;;;5051900;28;20067;-75
2021/06/01 05:34:47;;;;;;;9.57;2.90;;;;;;;;;;5052320;28;20105;-74
2021/06/01 05:37:12;;;;;;;5.10;3.40;;;;;;;;;;5053024;28;20037;-74
2021/06/01 05:39:38;;;;;;;5.30;2.88;;;;;;;;;;5052261;28;20040;-74
2021/06/01 05:42:04;;;;;;;6.40;3.30;;;;;;;;;;5046343;28;20052;-74
2021/06/01 05:44:30;;;;;;;7.20;3.33;;;;;;;;;;5045025;28;20033;-74
2021/06/01 05:46:55;;;;;;;5.35;3.40;;;;;;;;;;5044638;28;20530;-75
2021/06/01 05:49:21;;;;;;;8.07;4.00;;;;;;;;;;5033192;28;20061;-74
2021/06/01 05:51:46;;;;;;;6.78;3.80;;;;;;;;;;5033269;28;20491;-75
2021/06/01 05:54:11;;;;;;;5.47;3.53;;;;;;;;;;5031866;28;20498;-75
2021/06/01 05:56:37;;;;;;;6.40;3.63;;;;;;;;;;5032266;28;20047;-74
2021/06/01 05:59:04;;;;;;;10.40;3.90;;;;;;;;;;5032585;28;20079;-75
2021/06/01 06:01:30;;;;;;;4.57;3.47;;;;;;;;;;5034286;28;20475;-78
2021/06/01 06:03:55;;;;;;;12.23;3.55;;;;;;;;;;5033546;28;20102;-78
2021/06/01 06:06:21;;;;;;;6.85;3.70;;;;;;;;;;5035128;28;20100;-78
2021/06/01 06:08:47;;;;;;;7.80;3.38;;;;;;;;;;5032770;28;20041;-78
2021/06/01 06:11:12;;;;;;;5.35;3.22;;;;;;;;;;5068983;28;20036;-79
2021/06/01 06:13:37;;;;;;;6.28;3.88;;;;;;;;;;5059144;28;20028;-80
2021/06/01 06:16:04;;;;;;;5.10;3.10;;;;;;;;;;5053425;28;20029;-78
2021/06/01 06:18:42;;;;;;;5.50;3.00;;;;;;;;;;5054133;28;20409;-78
2021/06/01 06:21:08;;;;;;;4.28;3.00;;;;;;;;;;5057043;28;20497;-78
2021/06/01 06:23:35;;;;;;;4.97;3.00;;;;;;;;;;5040079;28;20033;-78
2021/06/01 06:26:01;;;;;;;9.57;3.28;;;;;;;;;;5032381;28;20129;-76
2021/06/01 06:28:27;;;;;;;4.70;3.10;;;;;;;;;;5032616;28;20502;-77
2021/06/01 06:30:52;;;;;;;7.65;3.53;;;;;;;;;;5037150;28;20037;-76
2021/06/01 06:33:18;;;;;;;4.30;3.00;;;;;;;;;;5041448;28;20119;-76
2021/06/01 06:35:43;;;;;;;7.95;3.15;;;;;;;;;;5032951;28;20034;-77
2021/06/01 06:38:09;;;;;;;3.75;3.08;;;;;;;;;;5034458;28;20029;-77
2021/06/01 06:40:34;;;;;;;5.20;3.42;;;;;;;;;;5054976;28;20029;-75
2021/06/01 06:43:00;;;;;;;4.07;3.03;;;;;;;;;;5047336;28;20042;-77
2021/06/01 06:45:25;;;;;;;7.85;3.22;;;;;;;;;;5045828;28;20037;-76
2021/06/01 06:50:19;;;;;;;5.38;3.25;;;;;;;;;;5031469;28;20034;-77
2021/06/01 06:52:46;;;;;;;14.35;3.47;;;;;;;;;;5033236;28;20033;-77
2021/06/01 06:55:12;;;;;;;7.07;3.40;;;;;;;;;;5033612;28;20106;-77
2021/06/01 06:57:39;;;;;;;8.40;2.65;;;;;;;;;;5036046;28;20040;-77
2021/06/01 07:00:13;;;;;;;4.57;2.75;;;;;;;;;;5036018;28;20059;-78
2021/06/01 07:02:40;;;;;;;4.93;3.00;;;;;;;;;;5036034;28;20037;-75
2021/06/01 07:05:06;;;;;;;6.95;3.50;;;;;;;;;;5036469;28;20128;-75
2021/06/01 07:07:31;;;;;;;3.80;2.65;;;;;;;;;;5035746;28;20039;-76
2021/06/01 07:09:57;;;;;;;6.45;3.05;;;;;;;;;;5046821;28;20041;-75
2021/06/01 07:12:22;;;;;;;8.45;2.88;;;;;;;;;;5054606;28;20033;-76
2021/06/01 07:14:51;;;;;;;11.82;3.20;;;;;;;;;;5046906;28;20036;-76
2021/06/01 07:17:16;;;;;;;7.18;2.35;;;;;;;;;;5055803;28;20166;-77
2021/06/01 07:19:44;;;;;;;7.55;2.60;;;;;;;;;;5055053;28;20029;-77
2021/06/01 07:22:10;;;;;;;7.35;2.70;;;;;;;;;;5055758;28;20041;-76
2021/06/01 07:24:35;;;;;;;3.83;2.60;;;;;;;;;;5054918;28;20095;-76
2021/06/01 07:27:01;;;;;;;6.22;2.45;;;;;;;;;;5054694;28;20037;-76
2021/06/01 07:29:27;;;;;;;4.82;2.65;;;;;;;;;;5055064;28;20033;-77
2021/06/01 07:31:54;;;;;;;4.05;2.30;;;;;;;;;;5055123;28;20455;-76
2021/06/01 07:34:20;;;;;;;9.13;2.40;;;;;;;;;;5055534;28;20051;-77
2021/06/01 07:36:45;;;;;;;3.67;2.60;;;;;;;;;;5055329;28;20033;-77
2021/06/01 07:39:10;;;;;;;9.98;2.67;;;;;;;;;;5054864;28;20045;-77
2021/06/01 07:41:36;;;;;;;2.90;1.85;;;;;;;;;;5055187;28;20052;-76
2021/06/01 07:44:03;;;;;;;3.67;1.90;;;;;;;;;;5055287;28;20033;-76
2021/06/01 07:46:30;;;;;;;3.35;2.50;;;;;;;;;;5054007;28;20387;-76
2021/06/01 07:48:55;;;;;;;3.20;2.28;;;;;;;;;;5055550;28;20040;-78
2021/06/01 07:51:28;;;;;;;3.60;2.05;;;;;;;;;;5041094;28;20548;-80
2021/06/01 07:53:58;;;;;;;6.20;2.47;;;;;;;;;;5019171;28;20065;-79
2021/06/01 07:56:23;;;;;;;4.90;2.50;;;;;;;;;;5039750;28;20047;-78
2021/06/01 07:58:50;;;;;;;4.78;2.17;;;;;;;;;;5046376;28;20032;-78
2021/06/01 08:01:16;;;;;;;9.48;2.50;;;;;;;;;;5056844;28;20029;-78
2021/06/01 08:03:41;;;;;;;4.38;1.92;;;;;;;;;;5056189;28;20060;-78
2021/06/01 08:06:07;;;;;;;7.05;1.95;;;;;;;;;;5055326;28;20521;-76
2021/06/01 08:08:33;;;;;;;3.33;1.90;;;;;;;;;;5053288;28;20040;-77
2021/06/01 08:10:58;;;;;;;3.63;2.30;;;;;;;;;;5053642;28;20116;-77
2021/06/01 08:13:27;;;;;;;4.30;1.77;;;;;;;;;;5053564;28;20378;-75
2021/06/01 08:15:52;;;;;;;13.10;1.95;;;;;;;;;;5054893;28;20094;-77
2021/06/01 08:18:20;;;;;;;8.85;2.90;;;;;;;;;;5049397;28;20479;-76
2021/06/01 08:21:08;;;;;;;6.78;2.03;;;;;;;;;;5034480;28;20041;-76
2021/06/01 08:23:34;;;;;;;10.90;1.92;;;;;;;;;;5034446;28;20037;-77
2021/06/01 08:26:00;;;;;;;3.92;2.25;;;;;;;;;;5032674;28;20044;-77
2021/06/01 08:28:25;;;;;;;5.22;1.67;;;;;;;;;;5032034;28;20113;-77
2021/06/01 08:30:52;;;;;;;5.10;1.95;;;;;;;;;;5033185;28;20088;-77
2021/06/01 08:33:18;;;;;;;2.00;1.67;;;;;;;;;;5034121;28;20050;-77
2021/06/01 08:35:43;;;;;;;3.88;1.60;;;;;;;;;;5034195;28;20045;-77
2021/06/01 08:38:09;;;;;;;2.80;1.50;;;;;;;;;;5034198;28;20022;-77
2021/06/01 08:40:35;;;;;;;6.55;1.65;;;;;;;;;;5050010;28;20479;-77
2021/06/01 08:43:00;;;;;;;1.80;1.10;;;;;;;;;;5052906;28;20045;-77
2021/06/01 08:45:26;;;;;;;2.83;1.48;;;;;;;;;;5053971;28;20043;-77
2021/06/01 08:47:54;;;;;;;3.17;1.40;;;;;;;;;;5053439;28;20036;-77
2021/06/01 08:50:20;;;;;;;2.38;1.38;;;;;;;;;;5053083;28;20032;-77
2021/06/01 08:52:46;;;;;;;5.28;1.60;;;;;;;;;;5053859;28;20151;-76
2021/06/01 08:55:12;;;;;;;2.65;1.35;;;;;;;;;;5053588;28;20033;-77
2021/06/01 08:57:41;;;;;;;2.35;1.40;;;;;;;;;;5053729;28;20082;-77
2021/06/01 09:00:10;;;;;;;6.38;1.40;;;;;;;;;;5053621;28;20094;-76
2021/06/01 09:02:36;;;;;;;4.18;1.55;;;;;;;;;;5053479;28;20118;-77
2021/06/01 09:05:05;;;;;;;4.35;1.40;;;;;;;;;;5053711;28;20056;-77
2021/06/01 09:07:42;;;;;;;4.57;1.15;;;;;;;;;;5052398;28;20044;-77
2021/06/01 09:19:51;;;;;;;2.40;1.30;;;;;;;;;;5053385;28;20036;-77
2021/06/01 09:21:16;;;;;;;4.80;1.80;;;;;;;;;;5052284;28;20033;-76
2021/06/01 09:23:55;;;;;;;5.43;1.48;;;;;;;;;;5052231;28;20093;-76
2021/06/01 09:26:45;;;;;;;5.60;1.38;;;;;;;;;;5053029;28;20124;-76
2021/06/01 09:29:11;;;;;;;3.33;1.30;;;;;;;;;;5033150;28;20038;-76
2021/06/01 09:31:37;;;;;;;2.00;1.30;;;;;;;;;;5033226;28;20400;-76
2021/06/01 09:34:02;;;;;;;3.15;1.60;;;;;;;;;;5031807;28;20037;-77
2021/06/01 09:36:27;;;;;;;2.97;1.30;;;;;;;;;;5031799;28;20479;-77
2021/06/01 09:38:53;;;;;;;5.90;1.20;;;;;;;;;;5033345;28;20018;-77
2021/06/01 09:41:25;;;;;;;2.85;1.45;;;;;;;;;;5033010;28;20033;-76
2021/06/01 09:43:56;;;;;;;2.70;1.70;;;;;;;;;;5033038;28;20044;-77
2021/06/01 09:46:22;;;;;;;4.75;1.50;;;;;;;;;;5039763;28;20028;-76
2021/06/01 09:48:48;;;;;;;2.17;1.38;;;;;;;;;;5052884;28;20044;-76
2021/06/01 09:51:30;;;;;;;4.60;1.38;;;;;;;;;;5053231;28;20033;-76
2021/06/01 09:53:57;;;;;;;1.58;1.10;;;;;;;;;;5052844;28;20033;-76
2021/06/01 09:56:23;;;;;;;4.22;1.30;;;;;;;;;;5052733;28;20540;-76
2021/06/01 09:58:50;;;;;;;1.83;1.33;;;;;;;;;;5051345;28;20034;-77
2021/06/01 10:01:16;;;;;;;3.90;1.63;;;;;;;;;;5051261;28;20470;-77
2021/06/01 10:03:50;;;;;;;2.40;1.60;;;;;;;;;;5052737;28;20116;-76
2021/06/01 10:06:17;;;;;;;1.52;1.38;;;;;;;;;;5052679;28;20449;-76
2021/06/01 10:08:52;;;;;;;2.05;1.30;;;;;;;;;;5050568;28;20041;-76
2021/06/01 10:11:19;;;;;;;3.90;1.15;;;;;;;;;;5051114;28;20033;-76
2021/06/01 10:13:45;;;;;;;3.63;1.40;;;;;;;;;;5052750;28;20131;-77
2021/06/01 10:16:13;;;;;;;4.93;1.70;;;;;;;;;;5052773;28;20068;-76
2021/06/01 10:18:41;;;;;;;4.18;1.15;;;;;;;;;;5051332;28;20487;-76
2021/06/01 10:21:12;;;;;;;2.38;1.00;;;;;;;;;;5052662;28;20095;-76
2021/06/01 10:23:40;;;;;;;3.08;1.40;;;;;;;;;;5052584;28;20040;-76
2021/06/01 10:26:08;;;;;;;2.63;1.40;;;;;;;;;;5051079;28;20028;-77
2021/06/01 10:28:37;;;;;;;3.22;1.30;;;;;;;;;;5052475;28;20120;-76
2021/06/01 10:31:06;;;;;;;2.70;1.17;;;;;;;;;;5052671;28;20359;-76
2021/06/01 10:33:38;;;;;;;1.55;1.10;;;;;;;;;;5054120;28;20123;-76
2021/06/01 10:50:46;;;;;;;5.25;1.45;;;;;;;;;;5064191;28;20040;-79
2021/06/01 10:53:18;;;;;;;4.15;1.63;;;;;;;;;;5059858;28;20040;-78
2021/06/01 10:56:00;;;;;;;2.05;1.38;;;;;;;;;;5059256;28;20041;-77
2021/06/01 10:58:47;;;;;;;2.10;1.20;;;;;;;;;;5056318;28;20041;-76
2021/06/01 11:06:52;;;;;;;7.20;1.30;;;;;;;;;;5055508;28;20037;-76
2021/06/01 11:09:33;;;;;;;5.03;1.70;;;;;;;;;;5054744;28;20494;-76
2021/06/01 11:11:58;;;;;;;3.45;1.50;;;;;;;;;;5035384;28;20061;-76
2021/06/01 11:14:30;;;;;;;3.15;1.45;;;;;;;;;;5035871;28;20049;-76
2021/06/01 11:16:57;;;;;;;2.83;1.08;;;;;;;;;;5035722;28;20525;-76
2021/06/01 11:19:28;;;;;;;2.30;1.40;;;;;;;;;;5035895;28;20047;-76
2021/06/01 11:22:01;;;;;;;2.97;1.52;;;;;;;;;;5035697;28;20061;-76
2021/06/01 11:35:44;;;;;;;8.07;1.70;;;;;;;;;;5034251;28;20477;-76
2021/06/01 11:43:20;;;;;;;6.05;1.50;;;;;;;;;;5054371;28;20044;-76
2021/06/01 11:45:57;;;;;;;4.13;1.40;;;;;;;;;;5053169;28;20048;-76
2021/06/01 11:51:27;;;;;;;3.65;1.42;;;;;;;;;;5054933;28;20475;-76
2021/06/01 11:54:02;;;;;;;6.20;1.20;;;;;;;;;;5055025;28;20467;-76
2021/06/01 12:18:22;;;;;;;6.05;1.50;;;;;;;;;;5054376;28;20089;-76
2021/06/01 12:20:48;;;;;;;6.07;1.50;;;;;;;;;;5036492;28;20041;-76
2021/06/01 12:23:27;;;;;;;7.38;1.63;;;;;;;;;;5054308;28;20048;-76
2021/06/01 12:26:03;;;;;;;3.42;1.58;;;;;;;;;;5054173;28;20041;-76
2021/06/01 12:31:16;;;;;;;6.65;1.55;;;;;;;;;;5054407;28;20041;-76
2021/06/01 12:33:41;;;;;;;3.53;1.60;;;;;;;;;;5054337;28;20048;-76
2021/06/01 12:37:06;;;;;;;3.42;1.40;;;;;;;;;;5054264;28;20033;-76
2021/06/01 12:42:18;;;;;;;3.33;1.65;;;;;;;;;;5051466;28;20475;-76
2021/06/01 12:44:44;;;;;;;1.92;1.42;;;;;;;;;;5053801;28;20064;-76
2021/06/01 13:14:42;;;;;;;3.58;1.65;;;;;;;;;;5051992;28;20037;-76
2021/06/01 13:46:47;;;;;;;3.60;1.60;;;;;;;;;;5052013;28;20070;-75
2021/06/01 13:51:55;;;;;;;4.22;1.85;;;;;;;;;;5053076;28;20056;-76
2021/06/01 13:57:14;;;;;;;3.75;1.30;;;;;;;;;;5052915;28;20044;-76
2021/06/01 14:21:10;;;;;;;1.83;1.40;;;;;;;;;;5056820;28;20037;-75
2021/06/01 14:29:43;;;;;;;3.03;1.45;;;;;;;;;;5056582;28;20040;-76
2021/06/01 14:54:41;;;;;;;2.13;1.30;;;;;;;;;;5054833;28;20108;-76
2021/06/01 15:53:39;;;;;;;7.25;1.95;;;;;;;;;;5055180;28;20069;-76
2021/06/01 16:13:13;;;;;;;6.40;1.58;;;;;;;;;;5055043;28;20064;-76
2021/06/01 16:21:27;;;;;;;4.78;2.75;;;;;;;;;;5054800;28;20039;-76
2021/06/01 16:29:45;;;;;;;8.95;6.72;;;;;;;;;;5042625;28;20087;-75
2021/06/01 17:05:16;;;;;;;17.08;7.45;;;;;;;;;;5053636;28;20067;-75
2021/06/01 17:13:07;;;;;;;8.27;3.25;;;;;;;;;;5053360;28;20429;-75
2021/06/01 17:15:34;;;;;;;8.70;2.72;;;;;;;;;;5053609;28;20040;-75
2021/06/01 17:18:09;;;;;;;12.75;6.53;;;;;;;;;;5053492;28;20090;-77
2021/06/01 17:23:59;;;;;;;10.48;6.97;;;;;;;;;;5039388;28;21529;-75
2021/06/01 17:32:17;;;;;;;5.45;2.60;;;;;;;;;;5053300;28;20040;-76
2021/06/01 17:37:37;;;;;;;;;;;;;;;;;;5053329;28;20602;-77
2021/06/01 17:40:04;;;;;;;5.93;3.33;;;;;;;;;;5052231;28;20038;-76
2021/06/01 17:42:31;;;;;;;5.75;3.25;;;;;;;;;;5052627;28;20057;-76
2021/06/01 17:45:03;;;;;;;5.28;2.45;;;;;;;;;;5054153;28;20036;-76
2021/06/01 17:47:31;;;;;;;7.45;2.40;;;;;;;;;;5051602;28;20041;-76
2021/06/01 17:49:57;;;;;;;4.78;2.80;;;;;;;;;;5051303;28;20045;-76
2021/06/01 17:52:33;;;;;;;6.43;2.88;;;;;;;;;;5051775;28;20037;-77
2021/06/01 17:55:00;;;;;;;5.13;2.90;;;;;;;;;;5051695;28;20474;-77
2021/06/01 17:57:27;;;;;;;5.15;2.28;;;;;;;;;;5053183;28;20115;-76
2021/06/01 17:59:55;;;;;;;5.43;2.60;;;;;;;;;;5055560;28;20113;-76
2021/06/01 18:02:21;;;;;;;6.97;2.20;;;;;;;;;;5052703;28;20437;-76
2021/06/01 18:04:51;;;;;;;8.45;2.50;;;;;;;;;;5052471;28;20029;-77
2021/06/01 18:07:25;;;;;;;9.73;3.03;;;;;;;;;;5052924;28;20045;-76
2021/06/01 18:35:20;;;;;;;4.30;2.95;;;;;;;;;;5052528;28;20033;-76
2021/06/01 18:38:18;;;;;;;4.43;3.05;;;;;;;;;;5045930;28;20098;-77
2021/06/01 19:02:06;;;;;;;4.00;2.72;;;;;;;;;;5046910;28;20028;-77
2021/06/01 19:50:48;;;;;;;4.40;2.80;;;;;;;;;;5045372;28;20041;-76
2021/06/01 19:53:15;;;;;;;3.85;2.88;;;;;;;;;;5051612;28;20086;-75
2021/06/01 19:55:41;;;;;;;3.95;2.90;;;;;;;;;;5044239;28;20025;-76
2021/06/01 19:58:06;;;;;;;4.47;3.28;;;;;;;;;;5043030;28;20063;-76
2021/06/01 20:00:32;;;;;;;7.38;3.28;;;;;;;;;;5043597;28;20128;-75
2021/06/01 20:03:00;;;;;;;4.43;3.00;;;;;;;;;;5043277;28;20069;-75
2021/06/01 20:05:26;;;;;;;6.45;2.90;;;;;;;;;;5042863;28;20071;-75
2021/06/01 20:07:52;;;;;;;6.65;3.10;;;;;;;;;;5037204;28;20041;-75
2021/06/01 20:10:18;;;;;;;7.70;3.03;;;;;;;;;;5034966;28;20029;-76
2021/06/01 20:12:44;;;;;;;4.93;3.00;;;;;;;;;;5048165;28;20430;-75
2021/06/01 20:15:12;;;;;;;6.25;2.97;;;;;;;;;;5053492;28;20061;-76
2021/06/01 20:17:42;;;;;;;6.65;2.92;;;;;;;;;;5054470;28;20501;-76
2021/06/01 20:20:10;;;;;;;5.05;3.35;;;;;;;;;;5054524;28;20036;-75
2021/06/01 20:22:40;;;;;;;4.15;2.78;;;;;;;;;;5054577;28;20052;-75
2021/06/01 20:25:06;;;;;;;4.10;3.00;;;;;;;;;;5054812;28;20040;-75
2021/06/01 20:27:33;;;;;;;5.20;3.28;;;;;;;;;;5052997;28;20037;-75
2021/06/01 20:30:03;;;;;;;3.55;2.97;;;;;;;;;;5054506;28;20174;-75
2021/06/01 20:35:16;;;;;;;6.72;3.05;;;;;;;;;;5054278;28;20076;-75
2021/06/01 20:37:43;;;;;;;4.28;3.15;;;;;;;;;;5054203;28;20047;-75
2021/06/01 20:40:11;;;;;;;3.97;3.00;;;;;;;;;;5051937;28;20037;-75
2021/06/01 20:42:39;;;;;;;3.70;3.00;;;;;;;;;;5053926;28;20546;-75
2021/06/01 20:45:06;;;;;;;4.95;3.28;;;;;;;;;;5036056;28;20548;-75
2021/06/01 20:47:32;;;;;;;6.20;3.83;;;;;;;;;;5051890;28;20063;-75
2021/06/01 20:49:59;;;;;;;8.77;4.10;;;;;;;;;;5054040;28;20063;-74
2021/06/01 20:52:26;;;;;;;8.55;3.35;;;;;;;;;;5054020;28;20040;-75
2021/06/01 20:54:52;;;;;;;3.78;3.03;;;;;;;;;;5053603;28;20085;-75
2021/06/01 20:57:20;;;;;;;4.43;3.10;;;;;;;;;;5053475;28;20486;-75
2021/06/01 20:59:48;;;;;;;7.63;3.88;;;;;;;;;;5051721;28;20032;-75
2021/06/01 21:02:14;;;;;;;5.05;3.40;;;;;;;;;;5052573;28;20479;-75
2021/06/01 21:04:40;;;;;;;7.70;3.47;;;;;;;;;;5052429;28;20029;-75
2021/06/01 21:07:05;;;;;;;5.75;2.85;;;;;;;;;;5053805;28;20044;-75
2021/06/01 21:09:31;;;;;;;4.38;3.47;;;;;;;;;;5052262;28;20045;-75
2021/06/01 21:11:56;;;;;;;6.30;3.70;;;;;;;;;;5053067;28;20036;-75
2021/06/01 21:14:22;;;;;;;4.70;3.58;;;;;;;;;;5052328;28;20039;-75
2021/06/01 21:16:49;;;;;;;6.93;3.40;;;;;;;;;;5052844;28;20064;-75
2021/06/01 21:19:15;;;;;;;6.15;3.88;;;;;;;;;;5052898;28;20032;-75
2021/06/01 21:21:42;;;;;;;4.57;3.55;;;;;;;;;;5053405;28;20036;-75
2021/06/01 21:24:09;;;;;;;5.18;3.08;;;;;;;;;;5053468;28;20049;-75
2021/06/01 21:26:34;;;;;;;6.20;3.03;;;;;;;;;;5051319;28;20137;-74
2021/06/01 21:29:00;;;;;;;4.57;3.58;;;;;;;;;;5051986;28;20466;-75
2021/06/01 21:31:32;;;;;;;4.65;3.30;;;;;;;;;;5045289;28;20102;-75
2021/06/01 21:34:08;;;;;;;6.47;3.47;;;;;;;;;;5033090;28;20041;-75
2021/06/01 21:36:40;;;;;;;5.75;3.53;;;;;;;;;;5033359;28;20108;-75
2021/06/01 21:39:06;;;;;;;5.85;3.53;;;;;;;;;;5035813;28;20033;-75
2021/06/01 21:41:32;;;;;;;4.50;3.45;;;;;;;;;;5051461;28;20541;-75
2021/06/01 21:44:03;;;;;;;4.65;3.35;;;;;;;;;;5052872;28;20036;-75
2021/06/01 21:46:32;;;;;;;6.32;3.72;;;;;;;;;;5052899;28;20530;-75
2021/06/01 21:49:03;;;;;;;4.78;3.40;;;;;;;;;;5053054;28;20554;-75
2021/06/01 21:51:32;;;;;;;5.20;3.58;;;;;;;;;;5053157;28;20041;-75
2021/06/01 21:53:59;;;;;;;5.28;3.47;;;;;;;;;;5051079;28;20524;-75
2021/06/01 21:56:30;;;;;;;6.03;3.63;;;;;;;;;;5051298;28;20562;-75
2021/06/01 21:58:59;;;;;;;4.45;3.25;;;;;;;;;;5051677;28;20060;-75